Fairpartner — PHEC — position and weather

sailwx.info

Track history (hours):
 
Tides and Currents Weather Stations Pressure Air Temp Water Temp Dewpoint Dewpoint Depression Visibility Wind Speed Wind Dir Waves Ship Positions

Fairpartner

Last reported at 2017-Jan-05 15:22 UTC. Time now 2017-Jan-17 02:43 UTC.
Position N 23°27' E 119°15'.
Warning: this ship's position is 11 days out of date.

Length 143 m; beam 27 m.

Type: Cargo ship. MMSI: 246466992.

Date/timePositionNaut miles runAvg speedWind from/ knotsBaromVisibWave heightAir tempDewpointWater temp
2017-Jan-05 15:22N 23°27' E 119°15'1416.2
2017-Jan-05 14:31N 23°14' E 119°18'2015.4
2017-Jan-05 13:12N 22°59' E 119°33'1515.7
2017-Jan-05 12:15N 22°48' E 119°45'1115.8
2017-Jan-05 11:33N 22°42' E 119°54'1515.4
2017-Jan-05 10:33N 22°34' E 120°09'1010.1
2017-Jan-05 09:33N 22°34' E 120°20'0 0.0
2017-Jan-04 13:28N 22°33' E 120°19'4 4.0
2017-Jan-04 12:33N 22°32' E 120°16'9 9.2
2017-Jan-04 11:33N 22°24' E 120°10'  
2016-Dec-30 10:33N 01°15' E 103°55'2 2.4
2016-Dec-30 09:33N 01°16' E 103°53'0 0.0
2016-Dec-30 08:30N 01°16' E 103°53'0 0.0
2016-Dec-30 07:33N 01°16' E 103°53'0 0.1
2016-Dec-30 06:25N 01°16' E 103°53'0 0.1
2016-Dec-30 05:33N 01°16' E 103°53'0 0.1
2016-Dec-30 04:33N 01°16' E 103°53'0 0.1
2016-Dec-30 03:33N 01°16' E 103°53'0 0.0
2016-Dec-30 02:33N 01°16' E 103°53'0 0.0
2016-Dec-29 23:23N 01°16' E 103°53'0 0.0
2016-Dec-29 15:11N 01°16' E 103°53'0 0.0
2016-Dec-29 14:13N 01°16' E 103°53'0 0.0
2016-Dec-29 09:18N 01°16' E 103°53'0 0.1
2016-Dec-29 08:33N 01°16' E 103°53'0 0.0
2016-Dec-29 07:32N 01°16' E 103°53'0 0.0
2016-Dec-29 05:23N 01°16' E 103°53'0 0.0
2016-Dec-29 02:26N 01°16' E 103°53'0 0.0
2016-Dec-29 01:32N 01°16' E 103°53'0 0.0
2016-Dec-29 00:23N 01°16' E 103°53'0 0.0
2016-Dec-28 23:33N 01°16' E 103°53'0 0.0
2016-Dec-28 22:21N 01°16' E 103°53'0 0.0
2016-Dec-28 21:19N 01°16' E 103°53'0 0.0
2016-Dec-28 20:32N 01°16' E 103°53'0 0.0
2016-Dec-28 19:27N 01°16' E 103°53'0 0.0
2016-Dec-28 18:32N 01°16' E 103°53'0 0.0
2016-Dec-28 17:11N 01°16' E 103°53'0 0.0
2016-Dec-28 16:27N 01°16' E 103°53'0 0.0
2016-Dec-28 15:33N 01°16' E 103°53'0 0.0
2016-Dec-28 14:31N 01°16' E 103°53'8 5.7
2016-Dec-28 13:05N 01°16' E 103°45'3 0.1
2016-Dec-26 23:11N 01°18' E 103°43'  
Track history (hours):
 
Tides and Currents Weather Stations Pressure Air Temp Water Temp Dewpoint Dewpoint Depression Visibility Wind Speed Wind Dir Waves Ship Positions

Fairpartner

Last reported at 2017-Jan-05 15:22 UTC. Time now 2017-Jan-17 02:43 UTC.
Position N 23°27' E 119°15'.
Warning: this ship's position is 11 days out of date.

Length 143 m; beam 27 m.

Type: Cargo ship. MMSI: 246466992.

Date/timePositionNaut miles runAvg speedWind from/ knotsBaromVisibWave heightAir tempDewpointWater temp
2017-Jan-05 15:22N 23°27' E 119°15'1416.2
2017-Jan-05 14:31N 23°14' E 119°18'2015.4
2017-Jan-05 13:12N 22°59' E 119°33'1515.7
2017-Jan-05 12:15N 22°48' E 119°45'1115.8
2017-Jan-05 11:33N 22°42' E 119°54'1515.4
2017-Jan-05 10:33N 22°34' E 120°09'1010.1
2017-Jan-05 09:33N 22°34' E 120°20'0 0.0
2017-Jan-04 13:28N 22°33' E 120°19'4 4.0
2017-Jan-04 12:33N 22°32' E 120°16'9 9.2
2017-Jan-04 11:33N 22°24' E 120°10'  
2016-Dec-30 10:33N 01°15' E 103°55'2 2.4
2016-Dec-30 09:33N 01°16' E 103°53'0 0.0
2016-Dec-30 08:30N 01°16' E 103°53'0 0.0
2016-Dec-30 07:33N 01°16' E 103°53'0 0.1
2016-Dec-30 06:25N 01°16' E 103°53'0 0.1
2016-Dec-30 05:33N 01°16' E 103°53'0 0.1
2016-Dec-30 04:33N 01°16' E 103°53'0 0.1
2016-Dec-30 03:33N 01°16' E 103°53'0 0.0
2016-Dec-30 02:33N 01°16' E 103°53'0 0.0
2016-Dec-29 23:23N 01°16' E 103°53'0 0.0
2016-Dec-29 15:11N 01°16' E 103°53'0 0.0
2016-Dec-29 14:13N 01°16' E 103°53'0 0.0
2016-Dec-29 09:18N 01°16' E 103°53'0 0.1
2016-Dec-29 08:33N 01°16' E 103°53'0 0.0
2016-Dec-29 07:32N 01°16' E 103°53'0 0.0
2016-Dec-29 05:23N 01°16' E 103°53'0 0.0
2016-Dec-29 02:26N 01°16' E 103°53'0 0.0
2016-Dec-29 01:32N 01°16' E 103°53'0 0.0
2016-Dec-29 00:23N 01°16' E 103°53'0 0.0
2016-Dec-28 23:33N 01°16' E 103°53'0 0.0
2016-Dec-28 22:21N 01°16' E 103°53'0 0.0
2016-Dec-28 21:19N 01°16' E 103°53'0 0.0
2016-Dec-28 20:32N 01°16' E 103°53'0 0.0
2016-Dec-28 19:27N 01°16' E 103°53'0 0.0
2016-Dec-28 18:32N 01°16' E 103°53'0 0.0
2016-Dec-28 17:11N 01°16' E 103°53'0 0.0
2016-Dec-28 16:27N 01°16' E 103°53'0 0.0
2016-Dec-28 15:33N 01°16' E 103°53'0 0.0
2016-Dec-28 14:31N 01°16' E 103°53'8 5.7
2016-Dec-28 13:05N 01°16' E 103°45'3 0.1
2016-Dec-26 23:11N 01°18' E 103°43'  

Dump ship's entire track history